createdAt,value
2022-12-24T00:03:26.110Z,10.709030100334449
2022-12-24T00:09:46.089Z,11.66220735785953
2022-12-24T00:16:06.331Z,11.217391304347826
2022-12-24T00:23:44.655Z,9.816053511705686
2022-12-24T00:30:04.525Z,9.68561872909699
2022-12-24T00:36:24.419Z,9.709030100334449
2022-12-24T00:42:44.289Z,8.525083612040135
2022-12-24T00:49:50.157Z,8.076923076923077
2022-12-24T00:56:09.722Z,8.19732441471572
2022-12-24T01:02:29.719Z,8.963210702341136
2022-12-24T01:12:33.761Z,8.966555183946488
2022-12-24T01:18:53.486Z,7.896321070234114
2022-12-24T01:25:13.730Z,7.789297658862877
2022-12-24T01:31:33.564Z,7.5719063545150505
2022-12-24T01:37:52.836Z,7.936454849498328
2022-12-24T01:44:36.985Z,8.48494983277592
2022-12-24T01:50:56.956Z,7.846153846153846
2022-12-24T01:57:16.990Z,7.25752508361204
2022-12-24T02:08:53.205Z,7.839464882943144
2022-12-24T02:15:12.864Z,8.006688963210703
2022-12-24T02:22:56.139Z,7.1404682274247495
2022-12-24T02:29:15.756Z,6.946488294314381
2022-12-24T02:35:35.929Z,6.270903010033445
2022-12-24T02:41:55.238Z,7.451505016722408
2022-12-24T02:52:11.417Z,10.836120401337793
2022-12-24T02:58:31.592Z,9.608695652173912
2022-12-24T03:04:50.837Z,6.023411371237458
2022-12-24T03:11:10.087Z,4.872909698996655
2022-12-24T03:17:29.846Z,5.2842809364548495
2022-12-24T03:23:48.449Z,5.1404682274247495
2022-12-24T03:30:07.932Z,3.4414715719063547
2022-12-24T03:36:27.509Z,3.939799331103679
2022-12-24T03:44:57.183Z,3.4381270903010033
2022-12-24T03:51:18.717Z,3.5986622073578594
2022-12-24T03:58:28.752Z,4.05685618729097
2022-12-24T04:05:13.641Z,4.635451505016722
2022-12-24T04:11:33.639Z,4.073578595317726
2022-12-24T04:17:52.481Z,4.481605351170568
2022-12-24T04:24:13.016Z,4.130434782608695
2022-12-24T04:30:32.038Z,5.0602006688963215
2022-12-24T04:36:52.020Z,6.280936454849498
2022-12-24T04:43:11.587Z,5.789297658862877
2022-12-24T04:51:22.556Z,5.133779264214047
2022-12-24T04:57:42.648Z,5.7157190635451505
2022-12-24T05:04:02.712Z,6.505016722408027
2022-12-24T05:10:22.598Z,7.093645484949833
2022-12-24T05:16:42.072Z,7.311036789297659
2022-12-24T05:23:01.452Z,9.448160535117056
2022-12-24T05:30:00.446Z,13.080267558528428
2022-12-24T05:36:20.213Z,13.418060200668897
2022-12-24T05:45:28.302Z,15.668896321070234
2022-12-24T05:55:27.978Z,16.207357859531772
2022-12-24T06:01:47.724Z,17.05685618729097
2022-12-24T06:08:07.570Z,15.602006688963211
2022-12-24T06:21:30.360Z,10.775919732441471
2022-12-24T06:40:35.141Z,7.648829431438127
2022-12-24T06:55:02.964Z,6.665551839464883
2022-12-24T07:01:22.758Z,5.361204013377926
2022-12-24T07:07:46.097Z,4.250836120401337
2022-12-24T07:14:05.414Z,3.963210702341137
2022-12-24T07:20:25.278Z,4.073578595317726
2022-12-24T07:32:41.364Z,3.3745819397993313
2022-12-24T07:39:01.967Z,2.94314381270903
2022-12-24T07:45:27.116Z,2.7525083612040135
2022-12-24T07:51:48.454Z,3.0936454849498327
2022-12-24T07:58:09.174Z,2.68561872909699
2022-12-24T08:04:35.560Z,3.4749163879598663
2022-12-24T08:11:00.788Z,3.0936454849498327
2022-12-24T08:23:39.665Z,7.130434782608695
2022-12-24T08:30:01.703Z,4.973244147157191
2022-12-24T08:36:24.212Z,5.725752508361204
2022-12-24T08:42:47.783Z,4.287625418060201
2022-12-24T08:51:15.550Z,5.662207357859532
2022-12-24T08:57:38.112Z,5.852842809364549
2022-12-24T09:18:08.119Z,8.334448160535118
2022-12-24T09:24:30.434Z,8.478260869565217
2022-12-24T09:30:51.752Z,9.62876254180602
2022-12-24T09:37:13.523Z,10.635451505016722
2022-12-24T09:43:35.591Z,11.173913043478262
2022-12-24T09:49:57.676Z,9.464882943143813
2022-12-24T09:56:19.570Z,11.03010033444816
2022-12-24T10:02:41.663Z,9.923076923076923
2022-12-24T10:09:03.779Z,8.74247491638796
2022-12-24T10:15:25.426Z,9.528428093645484
2022-12-24T10:21:48.140Z,8.08695652173913
2022-12-24T10:28:09.702Z,7.170568561872909
2022-12-24T10:34:31.363Z,8.872909698996656
2022-12-24T10:40:53.304Z,9.40133779264214
2022-12-24T10:47:15.842Z,7.9397993311036785
2022-12-24T10:53:38.133Z,6.74247491638796
2022-12-24T11:05:32.280Z,7.769230769230769
2022-12-24T11:12:18.889Z,7.046822742474917
2022-12-24T11:18:45.320Z,7.070234113712375
2022-12-24T11:25:11.710Z,7.461538461538462
2022-12-24T11:31:34.375Z,7.301003344481606
2022-12-24T11:41:20.855Z,7.8561872909699
2022-12-24T11:49:23.065Z,6.501672240802676
2022-12-24T11:55:44.984Z,7.832775919732441
2022-12-24T12:02:06.567Z,8.327759197324415
2022-12-24T12:10:51.483Z,9.060200668896321
2022-12-24T12:18:57.693Z,8.979933110367893
2022-12-24T12:25:20.993Z,9.481605351170568
2022-12-24T12:31:46.447Z,12.073578595317725
2022-12-24T12:38:09.983Z,11.334448160535118
2022-12-24T12:44:31.695Z,13.866220735785953
2022-12-24T12:50:53.413Z,12.709030100334449
2022-12-24T12:57:15.005Z,11.919732441471572
2022-12-24T13:06:50.701Z,11.832775919732441
2022-12-24T13:13:39.799Z,12.294314381270903
2022-12-24T13:20:02.560Z,10.806020066889632
2022-12-24T13:32:04.297Z,8.361204013377927
2022-12-24T13:38:26.556Z,9.040133779264215
2022-12-24T13:44:48.426Z,7.775919732441472
2022-12-24T13:51:11.517Z,8.68561872909699
2022-12-24T13:57:33.940Z,8.882943143812708
2022-12-24T14:03:55.984Z,7.1638795986622075
2022-12-24T14:10:18.813Z,10.923076923076923
2022-12-24T14:16:42.365Z,6.063545150501672
2022-12-24T14:23:04.173Z,6.474916387959866
2022-12-24T14:29:27.453Z,4.595317725752508
2022-12-24T14:35:51.425Z,4.240802675585284
2022-12-24T14:49:14.388Z,4.40133779264214
2022-12-24T14:55:37.394Z,4.849498327759197
2022-12-24T15:01:57.768Z,5.2274247491638794
2022-12-24T15:08:17.984Z,5.538461538461538
2022-12-24T15:24:16.579Z,6.408026755852843
2022-12-24T15:30:37.222Z,7.0602006688963215
2022-12-24T15:36:59.630Z,7.418060200668896
2022-12-24T15:49:32.975Z,7.688963210702341
2022-12-24T15:59:08.124Z,7.538461538461538
2022-12-24T16:17:52.794Z,4.946488294314381
2022-12-24T16:24:12.416Z,4.391304347826087
2022-12-24T16:32:15.704Z,4.033444816053512
2022-12-24T16:38:36.764Z,4.438127090301004
2022-12-24T16:44:55.943Z,5.551839464882943
2022-12-24T16:51:15.720Z,5.290969899665551
2022-12-24T16:57:35.122Z,4.963210702341137
2022-12-24T17:04:11.721Z,6.916387959866221
2022-12-24T17:10:32.193Z,6.39799331103679
2022-12-24T17:16:52.326Z,6.618729096989966
2022-12-24T17:23:11.965Z,6.046822742474917
2022-12-24T17:29:31.858Z,5.585284280936455
2022-12-24T17:35:53.144Z,5.418060200668896
2022-12-24T17:42:12.786Z,5.702341137123746
2022-12-24T17:48:32.381Z,5.110367892976589
2022-12-24T17:58:12.928Z,4.54180602006689
2022-12-24T18:04:32.891Z,6.05685618729097
2022-12-24T18:10:52.847Z,6.705685618729097
2022-12-24T18:23:09.163Z,6.264214046822742
2022-12-24T18:29:29.312Z,5.879598662207358
2022-12-24T18:35:51.133Z,5.354515050167224
2022-12-24T18:46:02.515Z,3.6354515050167224
2022-12-24T18:52:23.542Z,4.013377926421405
2022-12-24T18:58:48.331Z,4.896321070234114
2022-12-24T19:05:12.875Z,9.521739130434783
2022-12-24T19:15:51.482Z,8.876254180602007
2022-12-24T19:22:16.272Z,7.25752508361204
2022-12-24T19:28:39.685Z,6.147157190635451
2022-12-24T19:35:01.815Z,5.812709030100335
2022-12-24T19:44:39.227Z,5.270903010033445
2022-12-24T19:50:59.396Z,5.642140468227424
2022-12-24T19:57:19.329Z,6.51505016722408
2022-12-24T20:03:47.544Z,6.518394648829432
2022-12-24T20:10:09.230Z,6.264214046822742
2022-12-24T20:16:30.772Z,6.050167224080267
2022-12-24T20:36:28.350Z,44.080267558528426
2022-12-24T20:42:49.333Z,28.26086956521739
2022-12-24T20:49:45.808Z,14.903010033444817
2022-12-24T20:56:05.523Z,11.96989966555184
2022-12-24T21:16:36.730Z,15.715719063545151
2022-12-24T21:23:00.603Z,15.68227424749164
2022-12-24T21:39:05.305Z,13.247491638795987
2022-12-24T21:45:27.159Z,12.732441471571907
2022-12-24T21:51:46.505Z,13.217391304347826
2022-12-24T21:58:07.325Z,12.695652173913043
2022-12-24T22:04:26.955Z,12.996655518394649
2022-12-24T22:10:45.779Z,12.949832775919733
2022-12-24T22:17:04.676Z,13.488294314381271
2022-12-24T22:27:02.992Z,14.33779264214047
2022-12-24T22:33:22.184Z,15.949832775919733
2022-12-24T22:39:42.311Z,16.451505016722408
2022-12-24T22:46:01.806Z,15.876254180602007
2022-12-24T22:52:21.452Z,15.565217391304348
2022-12-24T23:02:07.341Z,15.117056856187292
2022-12-24T23:17:24.048Z,15.852842809364548
2022-12-24T23:23:42.888Z,16.100334448160535
2022-12-24T23:30:01.906Z,14.65551839464883
2022-12-24T23:36:21.671Z,15.869565217391305
2022-12-24T23:42:41.639Z,16.354515050167223
2022-12-24T23:49:02.051Z,15.79598662207358
2022-12-24T23:57:47.950Z,16.682274247491637
